sensor_id;sensor_type;location;lat;lon;timestamp;pressure;altitude;pressure_sealevel;temperature;humidity
54924;BME280;40825;52.270;20.984;2023-11-22T00:00:43;101165.11;;;-2.56;99.72
54924;BME280;40825;52.270;20.984;2023-11-22T00:03:29;101168.92;;;-2.56;100.00
54924;BME280;40825;52.270;20.984;2023-11-22T00:05:54;101167.99;;;-2.58;99.81
54924;BME280;40825;52.270;20.984;2023-11-22T00:08:20;101167.85;;;-2.58;99.96
54924;BME280;40825;52.270;20.984;2023-11-22T00:10:45;101172.08;;;-2.59;99.52
54924;BME280;40825;52.270;20.984;2023-11-22T00:13:11;101169.84;;;-2.63;99.31
54924;BME280;40825;52.270;20.984;2023-11-22T00:15:37;101167.31;;;-2.64;98.73
54924;BME280;40825;52.270;20.984;2023-11-22T00:18:02;101167.59;;;-2.66;99.26
54924;BME280;40825;52.270;20.984;2023-11-22T00:20:29;101169.96;;;-2.65;99.53
54924;BME280;40825;52.270;20.984;2023-11-22T00:22:56;101174.85;;;-2.65;99.55
54924;BME280;40825;52.270;20.984;2023-11-22T00:25:22;101180.89;;;-2.67;99.22
54924;BME280;40825;52.270;20.984;2023-11-22T00:27:47;101177.89;;;-2.70;97.98
54924;BME280;40825;52.270;20.984;2023-11-22T00:30:14;101177.80;;;-2.74;98.47
54924;BME280;40825;52.270;20.984;2023-11-22T00:32:39;101182.96;;;-2.80;97.16
54924;BME280;40825;52.270;20.984;2023-11-22T00:35:08;101185.61;;;-2.81;97.60
54924;BME280;40825;52.270;20.984;2023-11-22T00:37:34;101185.49;;;-2.81;98.17
54924;BME280;40825;52.270;20.984;2023-11-22T00:40:00;101190.71;;;-2.81;98.07
54924;BME280;40825;52.270;20.984;2023-11-22T00:42:31;101190.46;;;-2.83;97.80
54924;BME280;40825;52.270;20.984;2023-11-22T00:44:57;101193.67;;;-2.84;96.62
54924;BME280;40825;52.270;20.984;2023-11-22T00:47:22;101201.48;;;-2.87;96.58
54924;BME280;40825;52.270;20.984;2023-11-22T00:49:48;101197.11;;;-2.94;95.55
54924;BME280;40825;52.270;20.984;2023-11-22T00:52:13;101202.29;;;-2.96;96.71
54924;BME280;40825;52.270;20.984;2023-11-22T00:54:39;101199.13;;;-2.95;97.31
54924;BME280;40825;52.270;20.984;2023-11-22T00:57:04;101205.02;;;-2.95;96.91
54924;BME280;40825;52.270;20.984;2023-11-22T00:59:29;101212.63;;;-2.94;97.23
54924;BME280;40825;52.270;20.984;2023-11-22T01:01:55;101212.31;;;-2.94;97.23
54924;BME280;40825;52.270;20.984;2023-11-22T01:04:20;101213.52;;;-2.94;97.56
54924;BME280;40825;52.270;20.984;2023-11-22T01:06:46;101218.45;;;-2.92;97.81
54924;BME280;40825;52.270;20.984;2023-11-22T01:09:11;101222.04;;;-2.90;97.10
54924;BME280;40825;52.270;20.984;2023-11-22T01:11:39;101223.30;;;-2.91;97.15
54924;BME280;40825;52.270;20.984;2023-11-22T01:14:04;101225.84;;;-2.93;96.27
54924;BME280;40825;52.270;20.984;2023-11-22T01:16:30;101231.61;;;-2.97;95.43
54924;BME280;40825;52.270;20.984;2023-11-22T01:18:56;101231.63;;;-3.04;95.29
54924;BME280;40825;52.270;20.984;2023-11-22T01:21:21;101227.54;;;-3.06;95.17
54924;BME280;40825;52.270;20.984;2023-11-22T01:23:47;101222.41;;;-3.08;95.14
54924;BME280;40825;52.270;20.984;2023-11-22T01:26:12;101224.08;;;-3.06;96.46
54924;BME280;40825;52.270;20.984;2023-11-22T01:28:37;101233.30;;;-3.06;94.70
54924;BME280;40825;52.270;20.984;2023-11-22T01:31:05;101235.58;;;-3.13;93.96
54924;BME280;40825;52.270;20.984;2023-11-22T01:33:31;101234.04;;;-3.13;94.88
54924;BME280;40825;52.270;20.984;2023-11-22T01:35:57;101231.04;;;-3.16;94.71
54924;BME280;40825;52.270;20.984;2023-11-22T01:38:23;101225.79;;;-3.19;94.29
54924;BME280;40825;52.270;20.984;2023-11-22T01:40:51;101228.02;;;-3.21;94.58
54924;BME280;40825;52.270;20.984;2023-11-22T01:43:18;101233.08;;;-3.22;94.90
54924;BME280;40825;52.270;20.984;2023-11-22T01:45:44;101239.16;;;-3.22;94.96
54924;BME280;40825;52.270;20.984;2023-11-22T01:48:13;101250.77;;;-3.24;94.67
54924;BME280;40825;52.270;20.984;2023-11-22T01:50:40;101252.55;;;-3.25;95.05
54924;BME280;40825;52.270;20.984;2023-11-22T01:53:10;101256.91;;;-3.25;94.55
54924;BME280;40825;52.270;20.984;2023-11-22T01:55:38;101259.15;;;-3.28;94.47
54924;BME280;40825;52.270;20.984;2023-11-22T01:58:04;101256.54;;;-3.27;95.14
54924;BME280;40825;52.270;20.984;2023-11-22T02:00:59;101257.48;;;-3.26;94.93
54924;BME280;40825;52.270;20.984;2023-11-22T02:03:26;101254.18;;;-3.29;94.27
54924;BME280;40825;52.270;20.984;2023-11-22T02:05:51;101254.96;;;-3.31;94.27
54924;BME280;40825;52.270;20.984;2023-11-22T02:08:18;101256.16;;;-3.34;94.09
54924;BME280;40825;52.270;20.984;2023-11-22T02:10:44;101254.55;;;-3.33;94.87
54924;BME280;40825;52.270;20.984;2023-11-22T02:13:10;101257.70;;;-3.33;94.28
54924;BME280;40825;52.270;20.984;2023-11-22T02:15:37;101260.94;;;-3.32;95.10
54924;BME280;40825;52.270;20.984;2023-11-22T02:18:03;101262.19;;;-3.33;94.72
54924;BME280;40825;52.270;20.984;2023-11-22T02:20:31;101275.75;;;-3.33;94.71
54924;BME280;40825;52.270;20.984;2023-11-22T02:22:56;101281.23;;;-3.34;93.66
54924;BME280;40825;52.270;20.984;2023-11-22T02:25:22;101283.23;;;-3.33;95.29
54924;BME280;40825;52.270;20.984;2023-11-22T02:27:48;101282.84;;;-3.32;94.64
54924;BME280;40825;52.270;20.984;2023-11-22T02:30:14;101280.56;;;-3.31;95.28
54924;BME280;40825;52.270;20.984;2023-11-22T02:32:39;101279.61;;;-3.33;94.23
54924;BME280;40825;52.270;20.984;2023-11-22T02:35:05;101275.70;;;-3.38;94.90
54924;BME280;40825;52.270;20.984;2023-11-22T02:37:34;101280.41;;;-3.38;95.09
54924;BME280;40825;52.270;20.984;2023-11-22T02:40:05;101279.25;;;-3.39;94.40
54924;BME280;40825;52.270;20.984;2023-11-22T02:42:31;101279.80;;;-3.47;92.97
54924;BME280;40825;52.270;20.984;2023-11-22T02:44:56;101282.80;;;-3.55;93.27
54924;BME280;40825;52.270;20.984;2023-11-22T02:47:23;101288.42;;;-3.63;92.04
54924;BME280;40825;52.270;20.984;2023-11-22T02:49:49;101292.83;;;-3.71;91.62
54924;BME280;40825;52.270;20.984;2023-11-22T02:52:14;101294.66;;;-3.77;92.42
54924;BME280;40825;52.270;20.984;2023-11-22T02:54:44;101296.99;;;-3.78;91.69
54924;BME280;40825;52.270;20.984;2023-11-22T02:57:11;101300.66;;;-3.82;91.65
54924;BME280;40825;52.270;20.984;2023-11-22T02:59:37;101304.58;;;-3.84;92.93
54924;BME280;40825;52.270;20.984;2023-11-22T03:02:02;101306.02;;;-3.81;93.41
54924;BME280;40825;52.270;20.984;2023-11-22T03:04:28;101306.64;;;-3.80;93.58
54924;BME280;40825;52.270;20.984;2023-11-22T03:06:53;101312.00;;;-3.79;93.75
54924;BME280;40825;52.270;20.984;2023-11-22T03:09:19;101316.85;;;-3.82;93.10
54924;BME280;40825;52.270;20.984;2023-11-22T03:11:44;101321.44;;;-3.88;93.17
54924;BME280;40825;52.270;20.984;2023-11-22T03:14:10;101326.48;;;-3.91;93.52
54924;BME280;40825;52.270;20.984;2023-11-22T03:16:38;101334.25;;;-3.94;94.04
54924;BME280;40825;52.270;20.984;2023-11-22T03:19:04;101335.05;;;-3.96;94.12
54924;BME280;40825;52.270;20.984;2023-11-22T03:21:29;101346.21;;;-4.00;93.28
54924;BME280;40825;52.270;20.984;2023-11-22T03:23:55;101347.28;;;-4.08;93.49
54924;BME280;40825;52.270;20.984;2023-11-22T03:26:21;101350.63;;;-4.13;93.19
54924;BME280;40825;52.270;20.984;2023-11-22T03:28:46;101354.99;;;-4.21;92.58
54924;BME280;40825;52.270;20.984;2023-11-22T03:31:13;101359.70;;;-4.25;93.42
54924;BME280;40825;52.270;20.984;2023-11-22T03:33:39;101357.11;;;-4.29;93.48
54924;BME280;40825;52.270;20.984;2023-11-22T03:36:05;101353.81;;;-4.34;92.89
54924;BME280;40825;52.270;20.984;2023-11-22T03:38:31;101360.44;;;-4.38;93.43
54924;BME280;40825;52.270;20.984;2023-11-22T03:40:57;101368.00;;;-4.40;93.09
54924;BME280;40825;52.270;20.984;2023-11-22T03:43:22;101376.09;;;-4.46;92.66
54924;BME280;40825;52.270;20.984;2023-11-22T03:45:47;101380.23;;;-4.53;92.47
54924;BME280;40825;52.270;20.984;2023-11-22T03:48:13;101390.28;;;-4.61;91.23
54924;BME280;40825;52.270;20.984;2023-11-22T03:50:38;101394.56;;;-4.71;91.31
54924;BME280;40825;52.270;20.984;2023-11-22T03:53:04;101390.52;;;-4.78;91.71
54924;BME280;40825;52.270;20.984;2023-11-22T03:55:29;101394.34;;;-4.82;91.27
54924;BME280;40825;52.270;20.984;2023-11-22T03:57:55;101401.91;;;-4.89;91.04
54924;BME280;40825;52.270;20.984;2023-11-22T04:00:21;101409.98;;;-4.94;90.60
54924;BME280;40825;52.270;20.984;2023-11-22T04:02:46;101423.80;;;-5.02;89.51
54924;BME280;40825;52.270;20.984;2023-11-22T04:05:12;101425.55;;;-5.11;90.84
54924;BME280;40825;52.270;20.984;2023-11-22T04:07:37;101430.96;;;-5.11;91.30
54924;BME280;40825;52.270;20.984;2023-11-22T04:10:05;101438.58;;;-5.11;91.20
54924;BME280;40825;52.270;20.984;2023-11-22T04:12:31;101446.37;;;-5.14;91.17
54924;BME280;40825;52.270;20.984;2023-11-22T04:14:57;101451.32;;;-5.16;91.48
54924;BME280;40825;52.270;20.984;2023-11-22T04:17:23;101454.33;;;-5.18;90.07
54924;BME280;40825;52.270;20.984;2023-11-22T04:19:49;101453.82;;;-5.27;89.52
54924;BME280;40825;52.270;20.984;2023-11-22T04:22:14;101455.98;;;-5.33;90.36
54924;BME280;40825;52.270;20.984;2023-11-22T04:24:40;101453.23;;;-5.34;90.60
54924;BME280;40825;52.270;20.984;2023-11-22T04:27:06;101454.09;;;-5.34;90.97
54924;BME280;40825;52.270;20.984;2023-11-22T04:29:31;101459.85;;;-5.35;90.48
54924;BME280;40825;52.270;20.984;2023-11-22T04:31:57;101461.69;;;-5.37;91.07
54924;BME280;40825;52.270;20.984;2023-11-22T04:34:22;101463.13;;;-5.39;90.99
54924;BME280;40825;52.270;20.984;2023-11-22T04:36:48;101464.85;;;-5.38;91.29
54924;BME280;40825;52.270;20.984;2023-11-22T04:39:13;101467.63;;;-5.38;91.48
54924;BME280;40825;52.270;20.984;2023-11-22T04:41:39;101473.55;;;-5.39;91.89
54924;BME280;40825;52.270;20.984;2023-11-22T04:44:05;101474.32;;;-5.37;92.10
54924;BME280;40825;52.270;20.984;2023-11-22T04:46:31;101480.48;;;-5.34;92.28
54924;BME280;40825;52.270;20.984;2023-11-22T04:48:57;101485.51;;;-5.34;91.96
54924;BME280;40825;52.270;20.984;2023-11-22T04:51:23;101488.38;;;-5.36;91.61
54924;BME280;40825;52.270;20.984;2023-11-22T04:53:50;101490.87;;;-5.38;91.87
54924;BME280;40825;52.270;20.984;2023-11-22T04:56:16;101491.59;;;-5.39;92.25
54924;BME280;40825;52.270;20.984;2023-11-22T04:58:42;101501.45;;;-5.39;92.06
54924;BME280;40825;52.270;20.984;2023-11-22T05:01:08;101502.38;;;-5.40;92.16
54924;BME280;40825;52.270;20.984;2023-11-22T05:03:36;101507.04;;;-5.39;92.20
54924;BME280;40825;52.270;20.984;2023-11-22T05:06:03;101508.88;;;-5.42;92.12
54924;BME280;40825;52.270;20.984;2023-11-22T05:08:29;101510.31;;;-5.43;92.06
54924;BME280;40825;52.270;20.984;2023-11-22T05:10:58;101514.40;;;-5.46;92.15
54924;BME280;40825;52.270;20.984;2023-11-22T05:13:24;101512.95;;;-5.48;92.13
54924;BME280;40825;52.270;20.984;2023-11-22T05:15:49;101516.71;;;-5.52;92.26
54924;BME280;40825;52.270;20.984;2023-11-22T05:18:15;101518.71;;;-5.54;92.01
54924;BME280;40825;52.270;20.984;2023-11-22T05:20:41;101524.02;;;-5.57;92.00
54924;BME280;40825;52.270;20.984;2023-11-22T05:23:06;101530.06;;;-5.61;92.04
54924;BME280;40825;52.270;20.984;2023-11-22T05:25:32;101530.87;;;-5.64;91.65
54924;BME280;40825;52.270;20.984;2023-11-22T05:27:57;101525.78;;;-5.71;92.02
54924;BME280;40825;52.270;20.984;2023-11-22T05:30:24;101528.23;;;-5.72;92.35
54924;BME280;40825;52.270;20.984;2023-11-22T05:32:49;101528.36;;;-5.71;92.40
54924;BME280;40825;52.270;20.984;2023-11-22T05:35:15;101537.36;;;-5.71;92.40
54924;BME280;40825;52.270;20.984;2023-11-22T05:37:40;101546.83;;;-5.73;92.36
54924;BME280;40825;52.270;20.984;2023-11-22T05:40:06;101550.64;;;-5.73;92.49
54924;BME280;40825;52.270;20.984;2023-11-22T05:42:35;101556.71;;;-5.73;92.35
54924;BME280;40825;52.270;20.984;2023-11-22T05:45:01;101557.18;;;-5.77;92.39
54924;BME280;40825;52.270;20.984;2023-11-22T05:47:27;101558.27;;;-5.78;92.44
54924;BME280;40825;52.270;20.984;2023-11-22T05:49:52;101552.52;;;-5.82;92.22
54924;BME280;40825;52.270;20.984;2023-11-22T05:52:18;101560.41;;;-5.85;92.50
54924;BME280;40825;52.270;20.984;2023-11-22T05:54:45;101567.01;;;-5.85;92.67
54924;BME280;40825;52.270;20.984;2023-11-22T05:57:10;101567.20;;;-5.86;92.42
54924;BME280;40825;52.270;20.984;2023-11-22T05:59:36;101577.98;;;-5.87;92.59
54924;BME280;40825;52.270;20.984;2023-11-22T06:02:01;101581.70;;;-5.88;92.62
54924;BME280;40825;52.270;20.984;2023-11-22T06:04:27;101579.64;;;-5.89;92.74
54924;BME280;40825;52.270;20.984;2023-11-22T06:06:52;101580.63;;;-5.88;92.78
54924;BME280;40825;52.270;20.984;2023-11-22T06:09:18;101582.27;;;-5.86;92.88
54924;BME280;40825;52.270;20.984;2023-11-22T06:11:44;101583.31;;;-5.86;92.71
54924;BME280;40825;52.270;20.984;2023-11-22T06:14:09;101581.13;;;-5.87;92.79
54924;BME280;40825;52.270;20.984;2023-11-22T06:16:35;101581.13;;;-5.87;92.82
54924;BME280;40825;52.270;20.984;2023-11-22T06:19:00;101583.39;;;-5.87;92.78
54924;BME280;40825;52.270;20.984;2023-11-22T06:21:26;101594.04;;;-5.89;92.46
54924;BME280;40825;52.270;20.984;2023-11-22T06:23:53;101603.10;;;-5.91;92.24
54924;BME280;40825;52.270;20.984;2023-11-22T06:26:20;101613.35;;;-5.91;92.75
54924;BME280;40825;52.270;20.984;2023-11-22T06:28:46;101613.56;;;-5.93;92.86
54924;BME280;40825;52.270;20.984;2023-11-22T06:31:13;101610.07;;;-5.92;92.65
54924;BME280;40825;52.270;20.984;2023-11-22T06:33:39;101616.57;;;-5.95;92.75
54924;BME280;40825;52.270;20.984;2023-11-22T06:36:05;101621.68;;;-5.97;92.87
54924;BME280;40825;52.270;20.984;2023-11-22T06:38:30;101619.73;;;-5.95;92.97
54924;BME280;40825;52.270;20.984;2023-11-22T06:40:56;101625.51;;;-5.97;92.94
54924;BME280;40825;52.270;20.984;2023-11-22T06:43:21;101626.88;;;-5.97;92.94
54924;BME280;40825;52.270;20.984;2023-11-22T06:45:48;101634.23;;;-5.94;93.13
54924;BME280;40825;52.270;20.984;2023-11-22T06:48:13;101638.45;;;-5.91;93.09
54924;BME280;40825;52.270;20.984;2023-11-22T06:50:39;101641.59;;;-5.91;92.98
54924;BME280;40825;52.270;20.984;2023-11-22T06:53:05;101648.61;;;-5.88;93.17
54924;BME280;40825;52.270;20.984;2023-11-22T06:55:31;101649.35;;;-5.84;93.23
54924;BME280;40825;52.270;20.984;2023-11-22T06:57:58;101650.80;;;-5.81;93.25
54924;BME280;40825;52.270;20.984;2023-11-22T07:00:24;101657.33;;;-5.80;93.19
54924;BME280;40825;52.270;20.984;2023-11-22T07:02:53;101659.14;;;-5.77;93.23
54924;BME280;40825;52.270;20.984;2023-11-22T07:05:18;101656.60;;;-5.73;93.25
54924;BME280;40825;52.270;20.984;2023-11-22T07:07:44;101646.27;;;-5.71;93.05
54924;BME280;40825;52.270;20.984;2023-11-22T07:10:10;101651.50;;;-5.67;93.36
54924;BME280;40825;52.270;20.984;2023-11-22T07:12:36;101663.70;;;-5.63;93.40
54924;BME280;40825;52.270;20.984;2023-11-22T07:15:03;101675.76;;;-5.60;93.34
54924;BME280;40825;52.270;20.984;2023-11-22T07:17:30;101680.42;;;-5.60;93.23
54924;BME280;40825;52.270;20.984;2023-11-22T07:19:59;101683.70;;;-5.60;93.38
54924;BME280;40825;52.270;20.984;2023-11-22T07:22:26;101689.30;;;-5.56;93.39
54924;BME280;40825;52.270;20.984;2023-11-22T07:24:52;101688.02;;;-5.55;93.38
54924;BME280;40825;52.270;20.984;2023-11-22T07:27:20;101686.49;;;-5.50;93.23
54924;BME280;40825;52.270;20.984;2023-11-22T07:29:46;101681.48;;;-5.46;93.33
54924;BME280;40825;52.270;20.984;2023-11-22T07:32:12;101685.55;;;-5.39;93.69
54924;BME280;40825;52.270;20.984;2023-11-22T07:34:39;101688.48;;;-5.33;93.50
54924;BME280;40825;52.270;20.984;2023-11-22T07:37:05;101694.91;;;-5.29;93.30
54924;BME280;40825;52.270;20.984;2023-11-22T07:39:35;101704.57;;;-5.22;92.95
54924;BME280;40825;52.270;20.984;2023-11-22T07:42:04;101709.07;;;-5.08;93.38
54924;BME280;40825;52.270;20.984;2023-11-22T07:44:33;101706.49;;;-4.84;93.38
54924;BME280;40825;52.270;20.984;2023-11-22T07:47:04;101700.95;;;-4.67;91.28
54924;BME280;40825;52.270;20.984;2023-11-22T07:49:34;101699.60;;;-4.40;92.17
54924;BME280;40825;52.270;20.984;2023-11-22T07:52:04;101698.73;;;-4.23;89.74
54924;BME280;40825;52.270;20.984;2023-11-22T07:54:31;101702.14;;;-4.08;91.10
54924;BME280;40825;52.270;20.984;2023-11-22T07:56:56;101703.35;;;-4.00;89.19
54924;BME280;40825;52.270;20.984;2023-11-22T07:59:23;101699.89;;;-3.96;88.28
54924;BME280;40825;52.270;20.984;2023-11-22T08:01:48;101693.03;;;-3.90;87.05
54924;BME280;40825;52.270;20.984;2023-11-22T08:04:14;101693.15;;;-3.89;85.08
54924;BME280;40825;52.270;20.984;2023-11-22T08:06:42;101694.73;;;-3.93;83.94
54924;BME280;40825;52.270;20.984;2023-11-22T08:09:07;101699.14;;;-3.91;86.85
54924;BME280;40825;52.270;20.984;2023-11-22T08:11:36;101700.03;;;-3.87;87.89
54924;BME280;40825;52.270;20.984;2023-11-22T08:14:02;101711.27;;;-3.81;89.58
54924;BME280;40825;52.270;20.984;2023-11-22T08:16:28;101720.73;;;-3.74;88.79
54924;BME280;40825;52.270;20.984;2023-11-22T08:18:54;101715.03;;;-3.67;90.60
54924;BME280;40825;52.270;20.984;2023-11-22T08:21:20;101706.19;;;-3.63;89.54
54924;BME280;40825;52.270;20.984;2023-11-22T08:23:46;101713.34;;;-3.60;89.34
54924;BME280;40825;52.270;20.984;2023-11-22T08:26:15;101720.97;;;-3.55;90.48
54924;BME280;40825;52.270;20.984;2023-11-22T08:28:41;101724.52;;;-3.53;90.44
54924;BME280;40825;52.270;20.984;2023-11-22T08:31:07;101730.26;;;-3.53;90.70
54924;BME280;40825;52.270;20.984;2023-11-22T08:33:39;101735.09;;;-3.51;89.77
54924;BME280;40825;52.270;20.984;2023-11-22T08:36:08;101732.58;;;-3.50;89.88
54924;BME280;40825;52.270;20.984;2023-11-22T08:38:37;101733.44;;;-3.46;89.67
54924;BME280;40825;52.270;20.984;2023-11-22T08:41:13;101737.37;;;-3.40;89.43
54924;BME280;40825;52.270;20.984;2023-11-22T08:43:39;101747.64;;;-3.31;90.58
54924;BME280;40825;52.270;20.984;2023-11-22T08:46:05;101749.45;;;-3.25;88.58
54924;BME280;40825;52.270;20.984;2023-11-22T08:48:32;101753.52;;;-3.19;88.72
54924;BME280;40825;52.270;20.984;2023-11-22T08:50:58;101755.80;;;-3.15;88.37
54924;BME280;40825;52.270;20.984;2023-11-22T08:53:24;101753.52;;;-3.10;87.28
54924;BME280;40825;52.270;20.984;2023-11-22T08:55:50;101757.46;;;-2.93;88.84
54924;BME280;40825;52.270;20.984;2023-11-22T08:58:15;101758.80;;;-2.77;87.69
54924;BME280;40825;52.270;20.984;2023-11-22T09:00:41;101759.55;;;-2.62;87.55
54924;BME280;40825;52.270;20.984;2023-11-22T09:03:08;101765.31;;;-2.47;88.31
54924;BME280;40825;52.270;20.984;2023-11-22T09:05:39;101775.13;;;-2.30;87.55
54924;BME280;40825;52.270;20.984;2023-11-22T09:08:05;101779.31;;;-2.08;88.58
54924;BME280;40825;52.270;20.984;2023-11-22T09:10:31;101785.62;;;-1.93;87.17
54924;BME280;40825;52.270;20.984;2023-11-22T09:12:56;101786.55;;;-1.87;86.30
54924;BME280;40825;52.270;20.984;2023-11-22T09:15:25;101775.21;;;-1.84;84.95
54924;BME280;40825;52.270;20.984;2023-11-22T09:17:55;101779.11;;;-1.78;85.60
54924;BME280;40825;52.270;20.984;2023-11-22T09:20:20;101782.96;;;-1.71;87.28
54924;BME280;40825;52.270;20.984;2023-11-22T09:22:54;101778.67;;;-1.76;85.18
54924;BME280;40825;52.270;20.984;2023-11-22T09:25:21;101772.29;;;-1.74;88.04
54924;BME280;40825;52.270;20.984;2023-11-22T09:27:51;101770.15;;;-1.73;87.99
54924;BME280;40825;52.270;20.984;2023-11-22T09:30:22;101763.81;;;-1.69;87.94
54924;BME280;40825;52.270;20.984;2023-11-22T09:33:09;101764.02;;;-1.66;80.49
54924;BME280;40825;52.270;20.984;2023-11-22T09:35:36;101753.39;;;-1.66;78.40
54924;BME280;40825;52.270;20.984;2023-11-22T09:38:04;101749.85;;;-1.76;76.82
54924;BME280;40825;52.270;20.984;2023-11-22T09:40:30;101745.15;;;-1.79;83.37
54924;BME280;40825;52.270;20.984;2023-11-22T09:43:00;101739.52;;;-1.78;82.03
54924;BME280;40825;52.270;20.984;2023-11-22T09:45:28;101738.98;;;-1.88;75.73
54924;BME280;40825;52.270;20.984;2023-11-22T09:47:57;101740.68;;;-1.84;79.62
54924;BME280;40825;52.270;20.984;2023-11-22T09:50:31;101735.44;;;-1.74;81.55
54924;BME280;40825;52.270;20.984;2023-11-22T09:53:01;101729.30;;;-1.70;78.69
54924;BME280;40825;52.270;20.984;2023-11-22T09:55:30;101718.61;;;-1.65;82.03
54924;BME280;40825;52.270;20.984;2023-11-22T09:57:58;101708.20;;;-1.62;83.79
54924;BME280;40825;52.270;20.984;2023-11-22T10:00:26;101706.39;;;-1.61;84.87
54924;BME280;40825;52.270;20.984;2023-11-22T10:02:53;101703.14;;;-1.70;77.83
54924;BME280;40825;52.270;20.984;2023-11-22T10:05:19;101719.80;;;-1.71;82.81
54924;BME280;40825;52.270;20.984;2023-11-22T10:07:46;101722.39;;;-1.74;84.57
54924;BME280;40825;52.270;20.984;2023-11-22T10:10:14;101718.21;;;-1.78;85.46
54924;BME280;40825;52.270;20.984;2023-11-22T10:12:42;101719.55;;;-1.84;84.02
54924;BME280;40825;52.270;20.984;2023-11-22T10:15:15;101719.49;;;-1.86;84.94
54924;BME280;40825;52.270;20.984;2023-11-22T10:17:49;101716.85;;;-1.86;85.36
54924;BME280;40825;52.270;20.984;2023-11-22T10:20:25;101718.88;;;-1.92;82.06
54924;BME280;40825;52.270;20.984;2023-11-22T10:22:52;101727.33;;;-1.93;84.18
54924;BME280;40825;52.270;20.984;2023-11-22T10:25:19;101735.43;;;-1.91;85.37
54924;BME280;40825;52.270;20.984;2023-11-22T10:27:47;101728.52;;;-1.93;84.01
54924;BME280;40825;52.270;20.984;2023-11-22T10:30:17;101722.70;;;-1.91;81.19
54924;BME280;40825;52.270;20.984;2023-11-22T10:32:42;101724.95;;;-1.91;78.78
54924;BME280;40825;52.270;20.984;2023-11-22T10:35:08;101732.33;;;-1.96;78.14
54924;BME280;40825;52.270;20.984;2023-11-22T10:37:35;101732.46;;;-1.95;82.55
54924;BME280;40825;52.270;20.984;2023-11-22T10:40:00;101737.16;;;-1.94;83.13
54924;BME280;40825;52.270;20.984;2023-11-22T10:42:27;101736.18;;;-1.92;84.35
54924;BME280;40825;52.270;20.984;2023-11-22T10:44:55;101736.03;;;-1.92;84.49
54924;BME280;40825;52.270;20.984;2023-11-22T10:47:22;101738.02;;;-1.94;83.91
54924;BME280;40825;52.270;20.984;2023-11-22T10:49:48;101737.23;;;-2.00;83.72
54924;BME280;40825;52.270;20.984;2023-11-22T10:52:14;101738.02;;;-2.01;84.28
54924;BME280;40825;52.270;20.984;2023-11-22T10:54:58;101735.75;;;-2.01;82.95
54924;BME280;40825;52.270;20.984;2023-11-22T10:57:25;101730.84;;;-2.04;75.64
54924;BME280;40825;52.270;20.984;2023-11-22T10:59:54;101731.58;;;-2.05;75.60
54924;BME280;40825;52.270;20.984;2023-11-22T11:02:21;101727.23;;;-2.02;76.22
54924;BME280;40825;52.270;20.984;2023-11-22T11:05:03;101725.30;;;-2.02;74.60
54924;BME280;40825;52.270;20.984;2023-11-22T11:07:37;101729.39;;;-2.03;72.82
54924;BME280;40825;52.270;20.984;2023-11-22T11:10:06;101728.39;;;-2.04;74.07
54924;BME280;40825;52.270;20.984;2023-11-22T11:12:31;101722.62;;;-2.04;73.02
54924;BME280;40825;52.270;20.984;2023-11-22T11:14:58;101721.45;;;-2.05;75.62
54924;BME280;40825;52.270;20.984;2023-11-22T11:17:24;101716.40;;;-2.01;77.58
54924;BME280;40825;52.270;20.984;2023-11-22T11:19:50;101722.75;;;-1.99;74.48
54924;BME280;40825;52.270;20.984;2023-11-22T11:22:15;101725.00;;;-1.95;78.64
54924;BME280;40825;52.270;20.984;2023-11-22T11:24:47;101726.65;;;-1.90;78.80
54924;BME280;40825;52.270;20.984;2023-11-22T11:27:14;101716.80;;;-1.88;76.91
54924;BME280;40825;52.270;20.984;2023-11-22T11:29:40;101713.45;;;-1.87;73.85
54924;BME280;40825;52.270;20.984;2023-11-22T11:32:11;101708.94;;;-1.88;77.03
54924;BME280;40825;52.270;20.984;2023-11-22T11:34:48;101699.77;;;-1.86;78.74
54924;BME280;40825;52.270;20.984;2023-11-22T11:37:20;101708.65;;;-1.86;75.47
54924;BME280;40825;52.270;20.984;2023-11-22T11:39:46;101718.42;;;-1.86;77.96
54924;BME280;40825;52.270;20.984;2023-11-22T11:42:12;101727.63;;;-1.88;75.03
54924;BME280;40825;52.270;20.984;2023-11-22T11:47:22;101722.80;;;-1.86;76.91
54924;BME280;40825;52.270;20.984;2023-11-22T11:49:51;101723.22;;;-1.84;76.92
54924;BME280;40825;52.270;20.984;2023-11-22T11:52:16;101715.30;;;-1.79;80.37
54924;BME280;40825;52.270;20.984;2023-11-22T11:54:42;101716.60;;;-1.77;80.46
54924;BME280;40825;52.270;20.984;2023-11-22T11:57:07;101709.18;;;-1.75;79.12
54924;BME280;40825;52.270;20.984;2023-11-22T11:59:33;101697.70;;;-1.73;78.80
54924;BME280;40825;52.270;20.984;2023-11-22T12:02:00;101691.70;;;-1.71;75.51
54924;BME280;40825;52.270;20.984;2023-11-22T12:04:27;101696.54;;;-1.71;77.97
54924;BME280;40825;52.270;20.984;2023-11-22T12:06:52;101707.33;;;-1.67;79.80
54924;BME280;40825;52.270;20.984;2023-11-22T12:09:27;101716.15;;;-1.65;79.60
54924;BME280;40825;52.270;20.984;2023-11-22T12:11:55;101710.66;;;-1.63;80.20
54924;BME280;40825;52.270;20.984;2023-11-22T12:14:22;101696.22;;;-1.61;80.26
54924;BME280;40825;52.270;20.984;2023-11-22T12:16:51;101697.29;;;-1.58;81.14
54924;BME280;40825;52.270;20.984;2023-11-22T12:19:24;101695.36;;;-1.54;81.49
54924;BME280;40825;52.270;20.984;2023-11-22T12:21:50;101698.77;;;-1.53;81.15
54924;BME280;40825;52.270;20.984;2023-11-22T12:24:16;101706.02;;;-1.51;81.48
54924;BME280;40825;52.270;20.984;2023-11-22T12:26:46;101713.06;;;-1.49;80.92
54924;BME280;40825;52.270;20.984;2023-11-22T12:29:12;101723.31;;;-1.48;79.74
54924;BME280;40825;52.270;20.984;2023-11-22T12:31:50;101725.38;;;-1.47;81.97
54924;BME280;40825;52.270;20.984;2023-11-22T12:34:18;101726.70;;;-1.45;81.92
54924;BME280;40825;52.270;20.984;2023-11-22T12:36:46;101723.27;;;-1.43;82.05
54924;BME280;40825;52.270;20.984;2023-11-22T12:39:12;101713.38;;;-1.45;81.31
54924;BME280;40825;52.270;20.984;2023-11-22T12:41:48;101707.49;;;-1.46;77.01